Observations for MINNEAPOLIS-ST PAUL, MN (MSP)

KMSP 211753Z 14016G21KT 10SM OVC070 M13/M21 A3031 RMK AO2 SLP287 VIRGA T11331206 11133 21172 56011  
KMSP 211653Z 15015G22KT 10SM OVC100 M14/M21 A3033 RMK AO2 SLP294 VIRGA T11441211
KMSP 211553Z 15019G25KT 10SM BKN110 BKN140 OVC250 M15/M22 A3032 RMK AO2 PK WND 15026/1533 SLP290 T11501217  
KMSP 211453Z 14012KT 10SM FEW110 FEW140 BKN250 M16/M22 A3035 RMK AO2 SLP299 T11611217 58016 
KMSP 211353Z 14010KT 10SM SCT140 BKN250 M17/M22 A3036 RMK AO2 SLP305 T11671222  
KMSP 211253Z 15010KT 10SM OVC140 M17/M22 A3039 RMK AO2 SLP314 T11671222 
KMSP 211153Z 15010KT 10SM BKN140 M17/M22 A3040 RMK AO2 SLP315 T11721222 11167 21178 58012   
KMSP 211053Z 14007KT 10SM OVC210 M17/M22 A3043 RMK AO2 SLP326 T11721222 
KMSP 210953Z 15008KT 10SM OVC095 M17/M21 A3043 RMK AO2 SLP326 T11721211 
KMSP 210853Z 13006KT 10SM OVC250 M18/M21 A3043 RMK AO2 SLP328 T11781211 55002   
KMSP 210753Z 12006KT 10SM OVC250 M18/M21 A3042 RMK AO2 SLP322 T11781206 
KMSP 210653Z 13004KT 10SM OVC250 M17/M21 A3043 RMK AO2 SLP327 T11721206 
KMSP 210553Z 12004KT 10SM OVC250 M17/M20 A3044 RMK AO2 SLP331 T11721200 11133 21172 411171206 58006 
KMSP 210453Z 00000KT 10SM OVC250 M16/M20 A3045 RMK AO2 SLP335 T11611200 
KMSP 210353Z 18004KT 10SM OVC250 M16/M20 A3045 RMK AO2 SLP337 T11561200 
KMSP 210253Z 09004KT 10SM SCT250 M15/M21 A3046 RMK AO2 SLP338 T11501211 50001   
KMSP 210153Z 07004KT 10SM CLR M15/M21 A3047 RMK AO2 SLP343 T11501211
KMSP 210053Z 06004KT 10SM CLR M14/M21 A3047 RMK AO2 SLP342 T11441211
KMSP 202353Z 07005KT 10SM CLR M13/M21 A3045 RMK AO2 SLP337 T11331211 11117 21150 55001  
KMSP 202253Z 09007KT 10SM CLR M13/M22 A3045 RMK AO2 SLP334 T11281217
KMSP 202153Z VRB05KT 10SM CLR M12/M21 A3045 RMK AO2 SLP333 T11221211
KMSP 202053Z 25003KT 10SM CLR M13/M21 A3046 RMK AO2 SLP336 T11281211 55007  
KMSP 201953Z VRB04KT 10SM FEW150 M13/M21 A3045 RMK AO2 SLP335 T11281211 
KMSP 201853Z 07006KT 10SM FEW150 M14/M21 A3047 RMK AO2 SLP340 T11391206 
KMSP 201753Z VRB03KT 10SM FEW150 M15/M22 A3048 RMK AO2 SLP344 T11501217 11150 21206 50007